sensor_id;sensor_type;location;lat;lon;timestamp;P1;durP1;ratioP1;P2;durP2;ratioP2
38302;SDS011;24103;42.454;27.400;2023-05-21T00:02:15;8.15;;;4.25;;
38302;SDS011;24103;42.454;27.400;2023-05-21T00:04:41;8.38;;;4.82;;
38302;SDS011;24103;42.454;27.400;2023-05-21T00:07:10;8.07;;;4.63;;
38302;SDS011;24103;42.454;27.400;2023-05-21T00:09:36;10.77;;;5.00;;
38302;SDS011;24103;42.454;27.400;2023-05-21T00:12:06;10.30;;;4.70;;
38302;SDS011;24103;42.454;27.400;2023-05-21T00:14:32;11.00;;;4.47;;
38302;SDS011;24103;42.454;27.400;2023-05-21T00:16:58;8.70;;;5.05;;
38302;SDS011;24103;42.454;27.400;2023-05-21T00:19:24;13.77;;;5.50;;
38302;SDS011;24103;42.454;27.400;2023-05-21T00:21:51;8.15;;;4.72;;
38302;SDS011;24103;42.454;27.400;2023-05-21T00:24:16;12.02;;;4.93;;
38302;SDS011;24103;42.454;27.400;2023-05-21T00:26:42;12.68;;;4.47;;
38302;SDS011;24103;42.454;27.400;2023-05-21T00:29:07;6.75;;;3.95;;
38302;SDS011;24103;42.454;27.400;2023-05-21T00:31:33;9.73;;;4.57;;
38302;SDS011;24103;42.454;27.400;2023-05-21T00:33:58;5.88;;;4.20;;
38302;SDS011;24103;42.454;27.400;2023-05-21T00:36:23;5.30;;;4.55;;
38302;SDS011;24103;42.454;27.400;2023-05-21T00:38:49;7.93;;;3.67;;
38302;SDS011;24103;42.454;27.400;2023-05-21T00:41:16;6.03;;;4.15;;
38302;SDS011;24103;42.454;27.400;2023-05-21T00:43:42;4.47;;;3.78;;
38302;SDS011;24103;42.454;27.400;2023-05-21T00:46:18;5.85;;;3.88;;
38302;SDS011;24103;42.454;27.400;2023-05-21T00:48:45;9.60;;;4.35;;
38302;SDS011;24103;42.454;27.400;2023-05-21T00:51:12;5.85;;;3.70;;
38302;SDS011;24103;42.454;27.400;2023-05-21T00:53:39;9.45;;;4.30;;
38302;SDS011;24103;42.454;27.400;2023-05-21T00:56:05;6.45;;;4.13;;
38302;SDS011;24103;42.454;27.400;2023-05-21T00:58:31;6.00;;;3.92;;
38302;SDS011;24103;42.454;27.400;2023-05-21T01:00:58;8.57;;;4.88;;
38302;SDS011;24103;42.454;27.400;2023-05-21T01:03:28;11.23;;;4.85;;
38302;SDS011;24103;42.454;27.400;2023-05-21T01:05:54;8.30;;;4.43;;
38302;SDS011;24103;42.454;27.400;2023-05-21T01:08:23;12.95;;;5.03;;
38302;SDS011;24103;42.454;27.400;2023-05-21T01:10:51;7.85;;;4.10;;
38302;SDS011;24103;42.454;27.400;2023-05-21T01:13:18;12.88;;;4.38;;
38302;SDS011;24103;42.454;27.400;2023-05-21T01:15:46;8.57;;;3.97;;
38302;SDS011;24103;42.454;27.400;2023-05-21T01:18:13;7.57;;;4.30;;
38302;SDS011;24103;42.454;27.400;2023-05-21T01:20:40;8.27;;;3.75;;
38302;SDS011;24103;42.454;27.400;2023-05-21T01:23:06;6.90;;;4.28;;
38302;SDS011;24103;42.454;27.400;2023-05-21T01:25:33;6.75;;;4.10;;
38302;SDS011;24103;42.454;27.400;2023-05-21T01:27:59;4.97;;;3.60;;
38302;SDS011;24103;42.454;27.400;2023-05-21T01:30:24;7.85;;;4.40;;
38302;SDS011;24103;42.454;27.400;2023-05-21T01:33:01;5.55;;;4.00;;
38302;SDS011;24103;42.454;27.400;2023-05-21T01:35:45;15.70;;;5.30;;
38302;SDS011;24103;42.454;27.400;2023-05-21T01:38:25;10.57;;;4.57;;
38302;SDS011;24103;42.454;27.400;2023-05-21T01:41:01;5.78;;;3.90;;
38302;SDS011;24103;42.454;27.400;2023-05-21T01:43:30;6.65;;;4.10;;
38302;SDS011;24103;42.454;27.400;2023-05-21T01:45:58;5.80;;;4.20;;
38302;SDS011;24103;42.454;27.400;2023-05-21T01:48:26;6.55;;;4.45;;
38302;SDS011;24103;42.454;27.400;2023-05-21T01:50:53;10.00;;;4.30;;
38302;SDS011;24103;42.454;27.400;2023-05-21T01:53:21;7.18;;;3.72;;
38302;SDS011;24103;42.454;27.400;2023-05-21T01:55:47;6.18;;;4.15;;
38302;SDS011;24103;42.454;27.400;2023-05-21T01:58:13;7.47;;;4.88;;
38302;SDS011;24103;42.454;27.400;2023-05-21T02:00:39;4.93;;;3.60;;
38302;SDS011;24103;42.454;27.400;2023-05-21T02:03:06;4.95;;;3.85;;
38302;SDS011;24103;42.454;27.400;2023-05-21T02:05:31;6.70;;;4.00;;
38302;SDS011;24103;42.454;27.400;2023-05-21T02:07:57;8.93;;;4.25;;
38302;SDS011;24103;42.454;27.400;2023-05-21T02:10:24;5.35;;;4.05;;
38302;SDS011;24103;42.454;27.400;2023-05-21T02:12:49;7.40;;;3.78;;
38302;SDS011;24103;42.454;27.400;2023-05-21T02:15:15;5.07;;;3.83;;
38302;SDS011;24103;42.454;27.400;2023-05-21T02:17:47;4.65;;;3.55;;
38302;SDS011;24103;42.454;27.400;2023-05-21T02:20:15;4.53;;;4.07;;
38302;SDS011;24103;42.454;27.400;2023-05-21T02:22:47;5.15;;;3.83;;
38302;SDS011;24103;42.454;27.400;2023-05-21T02:25:15;6.63;;;4.15;;
38302;SDS011;24103;42.454;27.400;2023-05-21T02:27:41;6.60;;;3.92;;
38302;SDS011;24103;42.454;27.400;2023-05-21T02:30:08;7.18;;;4.30;;
38302;SDS011;24103;42.454;27.400;2023-05-21T02:32:34;8.07;;;4.30;;
38302;SDS011;24103;42.454;27.400;2023-05-21T02:35:01;8.13;;;4.32;;
38302;SDS011;24103;42.454;27.400;2023-05-21T02:37:27;6.28;;;3.83;;
38302;SDS011;24103;42.454;27.400;2023-05-21T02:39:54;8.50;;;4.47;;
38302;SDS011;24103;42.454;27.400;2023-05-21T02:42:23;6.25;;;4.43;;
38302;SDS011;24103;42.454;27.400;2023-05-21T02:44:49;6.82;;;4.45;;
38302;SDS011;24103;42.454;27.400;2023-05-21T02:47:15;7.93;;;4.90;;
38302;SDS011;24103;42.454;27.400;2023-05-21T02:49:41;9.50;;;5.22;;
38302;SDS011;24103;42.454;27.400;2023-05-21T02:52:06;7.50;;;4.70;;
38302;SDS011;24103;42.454;27.400;2023-05-21T02:54:32;6.00;;;4.30;;
38302;SDS011;24103;42.454;27.400;2023-05-21T02:56:57;8.13;;;4.90;;
38302;SDS011;24103;42.454;27.400;2023-05-21T02:59:22;8.73;;;4.78;;
38302;SDS011;24103;42.454;27.400;2023-05-21T03:01:48;11.05;;;5.20;;
38302;SDS011;24103;42.454;27.400;2023-05-21T03:04:14;6.60;;;5.30;;
38302;SDS011;24103;42.454;27.400;2023-05-21T03:06:55;6.75;;;5.30;;
38302;SDS011;24103;42.454;27.400;2023-05-21T03:09:20;5.82;;;4.80;;
38302;SDS011;24103;42.454;27.400;2023-05-21T03:11:46;11.40;;;6.32;;
38302;SDS011;24103;42.454;27.400;2023-05-21T03:14:12;10.35;;;4.68;;
38302;SDS011;24103;42.454;27.400;2023-05-21T03:16:38;5.63;;;4.95;;
38302;SDS011;24103;42.454;27.400;2023-05-21T03:19:06;5.53;;;4.65;;
38302;SDS011;24103;42.454;27.400;2023-05-21T03:21:35;7.10;;;5.38;;
38302;SDS011;24103;42.454;27.400;2023-05-21T03:24:01;7.43;;;4.82;;
38302;SDS011;24103;42.454;27.400;2023-05-21T03:26:27;6.90;;;5.55;;
38302;SDS011;24103;42.454;27.400;2023-05-21T03:28:55;9.70;;;5.38;;
38302;SDS011;24103;42.454;27.400;2023-05-21T03:31:24;6.63;;;5.43;;
38302;SDS011;24103;42.454;27.400;2023-05-21T03:33:51;6.63;;;4.55;;
38302;SDS011;24103;42.454;27.400;2023-05-21T03:36:17;10.00;;;5.95;;
38302;SDS011;24103;42.454;27.400;2023-05-21T03:38:43;6.13;;;4.25;;
38302;SDS011;24103;42.454;27.400;2023-05-21T03:41:09;8.55;;;4.70;;
38302;SDS011;24103;42.454;27.400;2023-05-21T03:43:35;9.30;;;3.85;;
38302;SDS011;24103;42.454;27.400;2023-05-21T03:46:00;12.43;;;4.93;;
38302;SDS011;24103;42.454;27.400;2023-05-21T03:48:26;6.70;;;3.95;;
38302;SDS011;24103;42.454;27.400;2023-05-21T03:50:51;4.10;;;3.70;;
38302;SDS011;24103;42.454;27.400;2023-05-21T03:53:17;5.40;;;3.95;;
38302;SDS011;24103;42.454;27.400;2023-05-21T03:55:42;4.55;;;4.00;;
38302;SDS011;24103;42.454;27.400;2023-05-21T03:58:08;6.45;;;4.10;;
38302;SDS011;24103;42.454;27.400;2023-05-21T04:00:34;10.60;;;5.50;;
38302;SDS011;24103;42.454;27.400;2023-05-21T04:03:02;5.95;;;3.58;;
38302;SDS011;24103;42.454;27.400;2023-05-21T04:05:28;6.85;;;3.90;;
38302;SDS011;24103;42.454;27.400;2023-05-21T04:07:53;4.80;;;3.67;;
38302;SDS011;24103;42.454;27.400;2023-05-21T04:10:19;11.40;;;4.47;;
38302;SDS011;24103;42.454;27.400;2023-05-21T04:12:45;6.80;;;4.10;;
38302;SDS011;24103;42.454;27.400;2023-05-21T04:15:13;9.35;;;4.47;;
38302;SDS011;24103;42.454;27.400;2023-05-21T04:17:42;8.02;;;4.07;;
38302;SDS011;24103;42.454;27.400;2023-05-21T04:20:09;4.47;;;3.65;;
38302;SDS011;24103;42.454;27.400;2023-05-21T04:22:35;5.43;;;3.33;;
38302;SDS011;24103;42.454;27.400;2023-05-21T04:25:01;6.50;;;3.55;;
38302;SDS011;24103;42.454;27.400;2023-05-21T04:27:27;5.82;;;3.40;;
38302;SDS011;24103;42.454;27.400;2023-05-21T04:29:52;5.72;;;3.03;;
38302;SDS011;24103;42.454;27.400;2023-05-21T04:32:18;3.40;;;3.05;;
38302;SDS011;24103;42.454;27.400;2023-05-21T04:34:44;5.13;;;3.40;;
38302;SDS011;24103;42.454;27.400;2023-05-21T04:37:10;6.45;;;3.15;;
38302;SDS011;24103;42.454;27.400;2023-05-21T04:39:36;5.40;;;3.08;;
38302;SDS011;24103;42.454;27.400;2023-05-21T04:42:01;7.05;;;2.97;;
38302;SDS011;24103;42.454;27.400;2023-05-21T04:44:27;5.03;;;3.10;;
38302;SDS011;24103;42.454;27.400;2023-05-21T04:46:53;3.70;;;3.08;;
38302;SDS011;24103;42.454;27.400;2023-05-21T04:49:21;5.05;;;3.00;;
38302;SDS011;24103;42.454;27.400;2023-05-21T04:51:46;3.75;;;2.97;;
38302;SDS011;24103;42.454;27.400;2023-05-21T04:54:13;5.22;;;3.38;;
38302;SDS011;24103;42.454;27.400;2023-05-21T04:56:39;6.75;;;3.83;;
38302;SDS011;24103;42.454;27.400;2023-05-21T04:59:04;7.13;;;4.43;;
38302;SDS011;24103;42.454;27.400;2023-05-21T05:01:30;7.72;;;3.35;;
38302;SDS011;24103;42.454;27.400;2023-05-21T05:03:56;7.43;;;3.83;;
38302;SDS011;24103;42.454;27.400;2023-05-21T05:06:22;4.65;;;3.30;;
38302;SDS011;24103;42.454;27.400;2023-05-21T05:08:50;5.22;;;3.45;;
38302;SDS011;24103;42.454;27.400;2023-05-21T05:11:15;7.13;;;3.65;;
38302;SDS011;24103;42.454;27.400;2023-05-21T05:13:41;11.35;;;4.20;;
38302;SDS011;24103;42.454;27.400;2023-05-21T05:16:06;7.97;;;3.40;;
38302;SDS011;24103;42.454;27.400;2023-05-21T05:18:32;6.13;;;3.30;;
38302;SDS011;24103;42.454;27.400;2023-05-21T05:20:58;5.88;;;3.55;;
38302;SDS011;24103;42.454;27.400;2023-05-21T05:23:25;4.15;;;2.80;;
38302;SDS011;24103;42.454;27.400;2023-05-21T05:25:50;5.03;;;3.33;;
38302;SDS011;24103;42.454;27.400;2023-05-21T05:28:16;6.22;;;3.50;;
38302;SDS011;24103;42.454;27.400;2023-05-21T05:30:41;4.63;;;2.72;;
38302;SDS011;24103;42.454;27.400;2023-05-21T05:33:07;4.20;;;3.00;;
38302;SDS011;24103;42.454;27.400;2023-05-21T05:35:32;4.43;;;2.90;;
38302;SDS011;24103;42.454;27.400;2023-05-21T05:37:58;5.90;;;3.33;;
38302;SDS011;24103;42.454;27.400;2023-05-21T05:40:24;5.78;;;3.05;;
38302;SDS011;24103;42.454;27.400;2023-05-21T05:42:50;4.60;;;2.85;;
38302;SDS011;24103;42.454;27.400;2023-05-21T05:45:16;6.68;;;3.10;;
38302;SDS011;24103;42.454;27.400;2023-05-21T05:47:42;5.35;;;2.92;;
38302;SDS011;24103;42.454;27.400;2023-05-21T05:50:08;5.45;;;2.80;;
38302;SDS011;24103;42.454;27.400;2023-05-21T05:52:34;5.10;;;2.97;;
38302;SDS011;24103;42.454;27.400;2023-05-21T05:54:59;4.22;;;2.58;;
38302;SDS011;24103;42.454;27.400;2023-05-21T05:57:25;6.63;;;2.90;;
38302;SDS011;24103;42.454;27.400;2023-05-21T05:59:50;5.68;;;2.55;;
38302;SDS011;24103;42.454;27.400;2023-05-21T06:02:15;3.55;;;2.50;;
38302;SDS011;24103;42.454;27.400;2023-05-21T06:04:41;2.90;;;2.70;;
38302;SDS011;24103;42.454;27.400;2023-05-21T06:07:07;3.72;;;2.70;;
38302;SDS011;24103;42.454;27.400;2023-05-21T06:09:32;5.63;;;2.45;;
38302;SDS011;24103;42.454;27.400;2023-05-21T06:11:58;3.25;;;2.50;;
38302;SDS011;24103;42.454;27.400;2023-05-21T06:14:23;3.47;;;2.25;;
38302;SDS011;24103;42.454;27.400;2023-05-21T06:16:49;3.92;;;2.47;;
38302;SDS011;24103;42.454;27.400;2023-05-21T06:19:14;5.43;;;2.83;;
38302;SDS011;24103;42.454;27.400;2023-05-21T06:21:40;4.15;;;2.38;;
38302;SDS011;24103;42.454;27.400;2023-05-21T06:24:05;3.45;;;2.53;;
38302;SDS011;24103;42.454;27.400;2023-05-21T06:26:30;4.40;;;2.58;;
38302;SDS011;24103;42.454;27.400;2023-05-21T06:28:56;4.18;;;2.60;;
38302;SDS011;24103;42.454;27.400;2023-05-21T06:31:21;2.55;;;2.20;;
38302;SDS011;24103;42.454;27.400;2023-05-21T06:33:47;3.47;;;2.35;;
38302;SDS011;24103;42.454;27.400;2023-05-21T06:36:14;4.60;;;2.75;;
38302;SDS011;24103;42.454;27.400;2023-05-21T06:38:40;5.47;;;3.17;;
38302;SDS011;24103;42.454;27.400;2023-05-21T06:41:06;3.38;;;2.63;;
38302;SDS011;24103;42.454;27.400;2023-05-21T06:43:32;4.85;;;2.55;;
38302;SDS011;24103;42.454;27.400;2023-05-21T06:45:58;5.82;;;3.10;;
38302;SDS011;24103;42.454;27.400;2023-05-21T06:48:23;5.32;;;3.05;;
38302;SDS011;24103;42.454;27.400;2023-05-21T06:50:49;4.90;;;2.90;;
38302;SDS011;24103;42.454;27.400;2023-05-21T06:53:14;5.30;;;2.72;;
38302;SDS011;24103;42.454;27.400;2023-05-21T06:55:40;4.85;;;2.50;;
38302;SDS011;24103;42.454;27.400;2023-05-21T06:58:09;5.95;;;2.75;;
38302;SDS011;24103;42.454;27.400;2023-05-21T07:00:35;3.20;;;2.80;;
38302;SDS011;24103;42.454;27.400;2023-05-21T07:03:00;2.92;;;2.35;;
38302;SDS011;24103;42.454;27.400;2023-05-21T07:05:26;4.20;;;2.30;;
38302;SDS011;24103;42.454;27.400;2023-05-21T07:07:51;3.75;;;2.55;;
38302;SDS011;24103;42.454;27.400;2023-05-21T07:10:17;4.50;;;3.00;;
38302;SDS011;24103;42.454;27.400;2023-05-21T07:12:42;7.72;;;3.08;;
38302;SDS011;24103;42.454;27.400;2023-05-21T07:15:08;4.03;;;2.70;;
38302;SDS011;24103;42.454;27.400;2023-05-21T07:17:33;4.43;;;2.85;;
38302;SDS011;24103;42.454;27.400;2023-05-21T07:19:59;4.05;;;2.67;;
38302;SDS011;24103;42.454;27.400;2023-05-21T07:22:24;5.82;;;2.70;;
38302;SDS011;24103;42.454;27.400;2023-05-21T07:24:50;7.35;;;2.92;;
38302;SDS011;24103;42.454;27.400;2023-05-21T07:27:15;4.43;;;2.78;;
38302;SDS011;24103;42.454;27.400;2023-05-21T07:29:41;6.30;;;2.67;;
38302;SDS011;24103;42.454;27.400;2023-05-21T07:32:06;4.25;;;2.95;;
38302;SDS011;24103;42.454;27.400;2023-05-21T07:34:32;3.05;;;2.55;;
38302;SDS011;24103;42.454;27.400;2023-05-21T07:36:57;5.85;;;2.70;;
38302;SDS011;24103;42.454;27.400;2023-05-21T07:39:23;6.45;;;3.63;;
38302;SDS011;24103;42.454;27.400;2023-05-21T07:41:48;6.25;;;3.33;;
38302;SDS011;24103;42.454;27.400;2023-05-21T07:44:13;8.88;;;3.20;;
38302;SDS011;24103;42.454;27.400;2023-05-21T07:46:39;5.03;;;3.00;;
38302;SDS011;24103;42.454;27.400;2023-05-21T07:49:04;5.90;;;3.13;;
38302;SDS011;24103;42.454;27.400;2023-05-21T07:51:30;10.40;;;3.85;;
38302;SDS011;24103;42.454;27.400;2023-05-21T07:53:56;5.93;;;3.13;;
38302;SDS011;24103;42.454;27.400;2023-05-21T07:56:21;6.40;;;3.40;;
38302;SDS011;24103;42.454;27.400;2023-05-21T07:58:47;6.90;;;3.70;;
38302;SDS011;24103;42.454;27.400;2023-05-21T08:01:12;8.25;;;3.83;;
38302;SDS011;24103;42.454;27.400;2023-05-21T08:03:38;5.90;;;3.40;;
38302;SDS011;24103;42.454;27.400;2023-05-21T08:06:03;5.88;;;3.42;;
38302;SDS011;24103;42.454;27.400;2023-05-21T08:08:29;7.25;;;3.75;;
38302;SDS011;24103;42.454;27.400;2023-05-21T08:10:54;8.90;;;3.75;;
38302;SDS011;24103;42.454;27.400;2023-05-21T08:13:20;8.27;;;3.70;;
38302;SDS011;24103;42.454;27.400;2023-05-21T08:15:46;7.05;;;3.92;;
38302;SDS011;24103;42.454;27.400;2023-05-21T08:18:12;8.98;;;3.42;;
38302;SDS011;24103;42.454;27.400;2023-05-21T08:20:38;6.32;;;3.50;;
38302;SDS011;24103;42.454;27.400;2023-05-21T08:23:03;8.38;;;3.22;;
38302;SDS011;24103;42.454;27.400;2023-05-21T08:25:28;6.90;;;3.85;;
38302;SDS011;24103;42.454;27.400;2023-05-21T08:27:54;12.10;;;4.07;;
38302;SDS011;24103;42.454;27.400;2023-05-21T08:30:20;7.30;;;3.47;;
38302;SDS011;24103;42.454;27.400;2023-05-21T08:32:46;8.57;;;4.05;;
38302;SDS011;24103;42.454;27.400;2023-05-21T08:35:12;4.65;;;3.17;;
38302;SDS011;24103;42.454;27.400;2023-05-21T08:37:38;4.43;;;3.38;;
38302;SDS011;24103;42.454;27.400;2023-05-21T08:40:03;6.35;;;3.85;;
38302;SDS011;24103;42.454;27.400;2023-05-21T08:45:12;11.35;;;4.03;;
38302;SDS011;24103;42.454;27.400;2023-05-21T08:47:40;9.15;;;3.97;;
38302;SDS011;24103;42.454;27.400;2023-05-21T08:50:09;5.90;;;3.72;;
38302;SDS011;24103;42.454;27.400;2023-05-21T08:52:36;8.27;;;3.55;;
38302;SDS011;24103;42.454;27.400;2023-05-21T08:55:05;10.20;;;3.60;;
38302;SDS011;24103;42.454;27.400;2023-05-21T08:57:31;6.82;;;4.35;;
38302;SDS011;24103;42.454;27.400;2023-05-21T08:59:57;6.97;;;3.65;;
38302;SDS011;24103;42.454;27.400;2023-05-21T09:02:23;6.53;;;3.72;;
38302;SDS011;24103;42.454;27.400;2023-05-21T09:04:52;10.05;;;4.47;;
38302;SDS011;24103;42.454;27.400;2023-05-21T09:07:21;7.57;;;4.13;;
38302;SDS011;24103;42.454;27.400;2023-05-21T09:09:55;8.93;;;4.10;;
38302;SDS011;24103;42.454;27.400;2023-05-21T09:12:24;5.53;;;3.42;;
38302;SDS011;24103;42.454;27.400;2023-05-21T09:14:51;6.55;;;4.20;;
38302;SDS011;24103;42.454;27.400;2023-05-21T09:17:17;9.25;;;4.10;;
38302;SDS011;24103;42.454;27.400;2023-05-21T09:22:34;7.13;;;3.80;;
38302;SDS011;24103;42.454;27.400;2023-05-21T09:25:03;6.25;;;3.78;;
38302;SDS011;24103;42.454;27.400;2023-05-21T09:27:31;5.53;;;3.70;;
38302;SDS011;24103;42.454;27.400;2023-05-21T09:29:56;9.30;;;4.07;;
38302;SDS011;24103;42.454;27.400;2023-05-21T09:32:22;8.45;;;3.97;;
38302;SDS011;24103;42.454;27.400;2023-05-21T09:34:47;10.18;;;4.55;;
38302;SDS011;24103;42.454;27.400;2023-05-21T09:37:13;6.15;;;3.78;;
38302;SDS011;24103;42.454;27.400;2023-05-21T09:39:40;8.15;;;4.68;;
38302;SDS011;24103;42.454;27.400;2023-05-21T09:42:07;13.13;;;4.50;;
38302;SDS011;24103;42.454;27.400;2023-05-21T09:44:33;8.68;;;4.20;;
38302;SDS011;24103;42.454;27.400;2023-05-21T09:46:59;6.22;;;4.13;;
38302;SDS011;24103;42.454;27.400;2023-05-21T09:49:26;8.82;;;4.80;;
38302;SDS011;24103;42.454;27.400;2023-05-21T09:51:58;10.13;;;4.53;;
38302;SDS011;24103;42.454;27.400;2023-05-21T09:54:24;11.57;;;5.25;;
38302;SDS011;24103;42.454;27.400;2023-05-21T09:56:54;10.27;;;4.82;;
38302;SDS011;24103;42.454;27.400;2023-05-21T09:59:20;13.32;;;4.50;;
38302;SDS011;24103;42.454;27.400;2023-05-21T10:01:46;10.10;;;4.57;;
38302;SDS011;24103;42.454;27.400;2023-05-21T10:04:15;7.03;;;4.80;;
38302;SDS011;24103;42.454;27.400;2023-05-21T10:06:42;11.60;;;4.43;;
38302;SDS011;24103;42.454;27.400;2023-05-21T10:09:09;11.23;;;5.05;;
38302;SDS011;24103;42.454;27.400;2023-05-21T10:11:36;7.75;;;4.63;;
38302;SDS011;24103;42.454;27.400;2023-05-21T10:14:05;8.30;;;4.80;;
38302;SDS011;24103;42.454;27.400;2023-05-21T10:16:33;8.45;;;4.90;;
38302;SDS011;24103;42.454;27.400;2023-05-21T10:19:00;7.38;;;4.70;;
38302;SDS011;24103;42.454;27.400;2023-05-21T10:21:26;10.40;;;4.90;;
38302;SDS011;24103;42.454;27.400;2023-05-21T10:23:52;10.57;;;4.68;;
38302;SDS011;24103;42.454;27.400;2023-05-21T10:26:20;10.23;;;5.38;;
38302;SDS011;24103;42.454;27.400;2023-05-21T10:28:50;12.65;;;5.72;;
38302;SDS011;24103;42.454;27.400;2023-05-21T10:31:16;7.38;;;4.22;;
38302;SDS011;24103;42.454;27.400;2023-05-21T10:33:42;9.75;;;4.50;;
38302;SDS011;24103;42.454;27.400;2023-05-21T10:36:08;12.27;;;5.32;;
38302;SDS011;24103;42.454;27.400;2023-05-21T10:38:34;6.32;;;5.18;;
38302;SDS011;24103;42.454;27.400;2023-05-21T10:41:02;13.15;;;5.22;;
38302;SDS011;24103;42.454;27.400;2023-05-21T10:59:42;10.85;;;4.70;;
38302;SDS011;24103;42.454;27.400;2023-05-21T11:02:10;10.07;;;4.60;;
38302;SDS011;24103;42.454;27.400;2023-05-21T11:04:38;10.70;;;5.03;;
38302;SDS011;24103;42.454;27.400;2023-05-21T11:07:06;9.82;;;5.18;;
38302;SDS011;24103;42.454;27.400;2023-05-21T11:09:32;12.02;;;5.07;;
38302;SDS011;24103;42.454;27.400;2023-05-21T11:11:59;11.60;;;5.22;;
38302;SDS011;24103;42.454;27.400;2023-05-21T11:14:26;14.05;;;5.18;;
38302;SDS011;24103;42.454;27.400;2023-05-21T11:16:51;17.73;;;6.35;;
38302;SDS011;24103;42.454;27.400;2023-05-21T11:19:17;13.65;;;4.88;;
38302;SDS011;24103;42.454;27.400;2023-05-21T11:21:42;12.77;;;5.35;;
38302;SDS011;24103;42.454;27.400;2023-05-21T11:24:18;11.70;;;4.75;;
38302;SDS011;24103;42.454;27.400;2023-05-21T11:29:12;14.98;;;5.28;;
38302;SDS011;24103;42.454;27.400;2023-05-21T11:31:40;11.98;;;6.03;;
38302;SDS011;24103;42.454;27.400;2023-05-21T11:36:45;17.92;;;5.43;;
38302;SDS011;24103;42.454;27.400;2023-05-21T11:39:14;9.35;;;5.43;;
38302;SDS011;24103;42.454;27.400;2023-05-21T11:41:58;9.20;;;5.18;;
38302;SDS011;24103;42.454;27.400;2023-05-21T11:44:45;10.60;;;5.38;;
38302;SDS011;24103;42.454;27.400;2023-05-21T11:47:12;8.25;;;4.43;;
38302;SDS011;24103;42.454;27.400;2023-05-21T11:49:39;10.27;;;5.10;;
38302;SDS011;24103;42.454;27.400;2023-05-21T11:52:05;9.23;;;5.18;;
38302;SDS011;24103;42.454;27.400;2023-05-21T11:54:32;9.70;;;5.03;;
38302;SDS011;24103;42.454;27.400;2023-05-21T11:57:09;13.60;;;5.50;;
38302;SDS011;24103;42.454;27.400;2023-05-21T11:59:35;9.30;;;5.10;;
38302;SDS011;24103;42.454;27.400;2023-05-21T12:02:01;12.32;;;5.57;;
38302;SDS011;24103;42.454;27.400;2023-05-21T12:04:31;10.25;;;4.90;;
38302;SDS011;24103;42.454;27.400;2023-05-21T12:07:03;10.55;;;4.63;;
38302;SDS011;24103;42.454;27.400;2023-05-21T12:09:37;10.00;;;5.18;;
38302;SDS011;24103;42.454;27.400;2023-05-21T12:12:15;10.45;;;4.97;;
38302;SDS011;24103;42.454;27.400;2023-05-21T12:14:45;12.65;;;4.88;;
38302;SDS011;24103;42.454;27.400;2023-05-21T12:17:14;9.02;;;4.75;;
38302;SDS011;24103;42.454;27.400;2023-05-21T12:19:42;13.07;;;5.40;;
38302;SDS011;24103;42.454;27.400;2023-05-21T12:22:08;9.43;;;5.03;;
38302;SDS011;24103;42.454;27.400;2023-05-21T12:24:34;8.60;;;5.07;;
38302;SDS011;24103;42.454;27.400;2023-05-21T12:27:03;8.82;;;4.63;;
38302;SDS011;24103;42.454;27.400;2023-05-21T12:29:34;12.30;;;4.47;;
38302;SDS011;24103;42.454;27.400;2023-05-21T12:32:02;10.73;;;4.90;;
38302;SDS011;24103;42.454;27.400;2023-05-21T12:37:10;9.30;;;5.40;;
38302;SDS011;24103;42.454;27.400;2023-05-21T12:39:49;9.30;;;4.90;;
38302;SDS011;24103;42.454;27.400;2023-05-21T12:42:22;8.93;;;4.63;;
38302;SDS011;24103;42.454;27.400;2023-05-21T12:44:50;8.85;;;4.85;;
38302;SDS011;24103;42.454;27.400;2023-05-21T12:47:16;10.07;;;4.82;;
38302;SDS011;24103;42.454;27.400;2023-05-21T13:30:57;12.82;;;4.88;;
38302;SDS011;24103;42.454;27.400;2023-05-21T13:33:23;8.98;;;4.65;;
38302;SDS011;24103;42.454;27.400;2023-05-21T13:35:48;10.70;;;4.63;;
38302;SDS011;24103;42.454;27.400;2023-05-21T13:38:15;11.98;;;4.72;;
38302;SDS011;24103;42.454;27.400;2023-05-21T13:40:41;10.63;;;4.68;;
38302;SDS011;24103;42.454;27.400;2023-05-21T13:43:06;11.70;;;4.57;;
38302;SDS011;24103;42.454;27.400;2023-05-21T13:45:32;10.32;;;4.82;;
38302;SDS011;24103;42.454;27.400;2023-05-21T13:47:57;13.20;;;3.95;;
38302;SDS011;24103;42.454;27.400;2023-05-21T13:50:23;9.25;;;4.88;;
38302;SDS011;24103;42.454;27.400;2023-05-21T13:52:49;7.28;;;4.60;;
38302;SDS011;24103;42.454;27.400;2023-05-21T13:55:14;10.48;;;4.82;;
38302;SDS011;24103;42.454;27.400;2023-05-21T13:57:40;7.60;;;4.13;;
38302;SDS011;24103;42.454;27.400;2023-05-21T14:00:06;13.68;;;5.13;;
38302;SDS011;24103;42.454;27.400;2023-05-21T14:02:33;10.35;;;4.40;;
38302;SDS011;24103;42.454;27.400;2023-05-21T14:04:59;11.85;;;4.93;;
38302;SDS011;24103;42.454;27.400;2023-05-21T14:07:24;7.90;;;3.40;;
38302;SDS011;24103;42.454;27.400;2023-05-21T14:09:50;6.70;;;3.55;;
38302;SDS011;24103;42.454;27.400;2023-05-21T14:12:16;7.57;;;3.70;;
38302;SDS011;24103;42.454;27.400;2023-05-21T14:14:42;9.40;;;3.35;;
38302;SDS011;24103;42.454;27.400;2023-05-21T14:17:08;5.35;;;3.22;;
38302;SDS011;24103;42.454;27.400;2023-05-21T14:19:33;6.30;;;3.17;;
38302;SDS011;24103;42.454;27.400;2023-05-21T14:21:59;7.97;;;3.42;;
38302;SDS011;24103;42.454;27.400;2023-05-21T14:24:25;10.43;;;3.30;;
38302;SDS011;24103;42.454;27.400;2023-05-21T14:26:50;4.60;;;3.08;;
38302;SDS011;24103;42.454;27.400;2023-05-21T14:29:15;11.98;;;3.05;;
38302;SDS011;24103;42.454;27.400;2023-05-21T14:31:41;12.07;;;3.85;;
38302;SDS011;24103;42.454;27.400;2023-05-21T14:34:06;5.40;;;2.72;;
38302;SDS011;24103;42.454;27.400;2023-05-21T14:36:32;7.35;;;4.00;;
38302;SDS011;24103;42.454;27.400;2023-05-21T14:38:58;9.23;;;4.47;;
38302;SDS011;24103;42.454;27.400;2023-05-21T14:41:24;7.97;;;4.55;;
38302;SDS011;24103;42.454;27.400;2023-05-21T14:43:50;13.43;;;5.88;;
38302;SDS011;24103;42.454;27.400;2023-05-21T14:46:16;9.70;;;4.88;;
38302;SDS011;24103;42.454;27.400;2023-05-21T14:48:41;10.15;;;4.50;;
38302;SDS011;24103;42.454;27.400;2023-05-21T14:51:07;7.75;;;4.68;;
38302;SDS011;24103;42.454;27.400;2023-05-21T14:53:32;10.65;;;5.50;;
38302;SDS011;24103;42.454;27.400;2023-05-21T14:55:57;12.80;;;5.53;;
38302;SDS011;24103;42.454;27.400;2023-05-21T14:58:23;10.45;;;5.13;;
38302;SDS011;24103;42.454;27.400;2023-05-21T15:00:48;12.35;;;5.50;;
38302;SDS011;24103;42.454;27.400;2023-05-21T15:03:14;17.88;;;6.68;;
38302;SDS011;24103;42.454;27.400;2023-05-21T15:05:40;15.73;;;6.13;;
38302;SDS011;24103;42.454;27.400;2023-05-21T15:08:05;18.35;;;6.18;;
38302;SDS011;24103;42.454;27.400;2023-05-21T15:10:33;9.98;;;5.30;;
38302;SDS011;24103;42.454;27.400;2023-05-21T15:12:59;9.80;;;5.05;;
38302;SDS011;24103;42.454;27.400;2023-05-21T15:15:24;11.32;;;5.22;;
38302;SDS011;24103;42.454;27.400;2023-05-21T15:17:50;7.45;;;5.07;;
38302;SDS011;24103;42.454;27.400;2023-05-21T15:20:15;12.60;;;5.40;;
38302;SDS011;24103;42.454;27.400;2023-05-21T15:22:41;11.23;;;5.40;;
38302;SDS011;24103;42.454;27.400;2023-05-21T15:25:07;13.85;;;5.97;;
38302;SDS011;24103;42.454;27.400;2023-05-21T15:27:33;13.50;;;6.72;;
38302;SDS011;24103;42.454;27.400;2023-05-21T15:29:58;8.98;;;5.70;;
38302;SDS011;24103;42.454;27.400;2023-05-21T15:32:24;13.65;;;6.22;;
38302;SDS011;24103;42.454;27.400;2023-05-21T15:34:50;14.23;;;5.88;;
38302;SDS011;24103;42.454;27.400;2023-05-21T15:37:16;11.63;;;5.30;;
38302;SDS011;24103;42.454;27.400;2023-05-21T15:39:42;14.30;;;6.75;;